首页
METAR-TAF:

METAR-TAF

机场 :

伏努科沃國際機場

莫斯科Vnukovo, 俄罗斯

纬度: 55-39N, 经度: 037-16E, 海拔: 203米

当前天气观测

该预报发布于29分钟前的23:30 UTC
风速4节,风向西转西南,在西之间变化
温度 15°C
湿度 82%
气压 1017 hPa
能见度10公里或以上
1500米以下无云,无积雨云

METAR: UUWW 212330Z 24002MPS 170V260 CAVOK 15/12 Q1017 R24/000070 NOSIG

时间: 02:59 (23:59 UTC)

预报

该预报发布于1小时和2分钟前的22:57 UTC
预报有效从22日的 00点(UTC)到 22日的 24点(UTC)
风速2节,风向多变
能见度10公里或以上
散云层高于1200英尺
短暂存在
从 22日的 00点(UTC)到 22日的 05点(UTC)
能見度: 3100
少量云层高于400英尺
轻雾
几率 40% :
短暂存在
从 22日的 09点(UTC)到 22日的 18点(UTC)
能見度: 3100
多云层高于1500英尺, 积雨云.
雷暴, 小雨

TAF: UUWW 212257Z 2200/2224 VRB01MPS 9999 SCT012 TX23/2212Z TN13/2202Z TEMPO 2200/2205 3100 BR FEW004 PROB40 TEMPO 2209/2218 3100 -TSRA BKN015CB

超过4000个机场的气象观测和天气预报(METAR&TAF报告)。

可查询的气象台以黄色和红色小点在地图上表示。

将鼠标移到小点上方,可查看气象台名称。

然后点击查看天气观测和预报。

如需切换地图:点击带黑十字的绿色按钮放大地图;点击带横线的绿色按钮缩小地图;或者点击绿色箭头查看邻近地区的地图。


METAR-TAF: